createdAt,value
2024-03-09T00:01:40.556Z,14.23
2024-03-09T00:04:09.960Z,15.77
2024-03-09T00:06:38.696Z,14.50
2024-03-09T00:09:05.875Z,15.15
2024-03-09T00:11:33.339Z,13.77
2024-03-09T00:14:01.811Z,15.15
2024-03-09T00:16:29.202Z,15.10
2024-03-09T00:18:56.582Z,15.02
2024-03-09T00:21:24.990Z,15.07
2024-03-09T00:23:59.091Z,14.50
2024-03-09T00:26:26.143Z,14.13
2024-03-09T00:28:56.116Z,13.18
2024-03-09T00:31:26.591Z,16.27
2024-03-09T00:33:56.268Z,14.90
2024-03-09T00:36:24.395Z,14.80
2024-03-09T00:38:51.712Z,15.20
2024-03-09T00:41:20.226Z,17.23
2024-03-09T00:43:48.790Z,18.55
2024-03-09T00:46:15.825Z,16.92
2024-03-09T00:48:45.984Z,16.67
2024-03-09T00:51:18.074Z,15.80
2024-03-09T00:53:45.265Z,16.00
2024-03-09T00:56:14.564Z,16.00
2024-03-09T01:01:13.548Z,16.70
2024-03-09T01:03:43.187Z,15.18
2024-03-09T01:06:13.880Z,15.93
2024-03-09T01:08:43.184Z,18.45
2024-03-09T01:11:10.437Z,15.93
2024-03-09T01:13:42.778Z,16.83
2024-03-09T01:16:10.327Z,20.48
2024-03-09T01:18:37.788Z,16.38
2024-03-09T01:21:05.216Z,17.35
2024-03-09T01:23:32.668Z,16.23
2024-03-09T01:26:00.187Z,17.48
2024-03-09T01:28:29.734Z,16.40
2024-03-09T01:30:59.159Z,15.23
2024-03-09T01:33:28.503Z,17.50
2024-03-09T01:35:58.106Z,18.55
2024-03-09T01:38:30.814Z,15.85
2024-03-09T01:41:00.009Z,15.90
2024-03-09T01:43:27.351Z,16.13
2024-03-09T01:45:59.944Z,17.27
2024-03-09T01:48:27.180Z,16.30
2024-03-09T01:50:54.751Z,18.77
2024-03-09T01:53:22.649Z,17.38
2024-03-09T01:55:54.888Z,17.00
2024-03-09T01:58:24.639Z,17.20
2024-03-09T02:00:58.803Z,18.30
2024-03-09T02:03:26.526Z,16.27
2024-03-09T02:05:56.125Z,18.23
2024-03-09T02:08:26.849Z,17.30
2024-03-09T02:10:56.251Z,18.50
2024-03-09T02:13:25.736Z,16.20
2024-03-09T02:15:56.584Z,16.50
2024-03-09T02:18:30.424Z,18.48
2024-03-09T02:20:58.880Z,17.23
2024-03-09T02:23:27.831Z,18.33
2024-03-09T02:25:57.380Z,18.48
2024-03-09T02:28:24.601Z,16.63
2024-03-09T02:30:51.923Z,16.45
2024-03-09T02:33:23.823Z,17.13
2024-03-09T02:35:53.973Z,18.23
2024-03-09T02:38:24.211Z,18.65
2024-03-09T02:40:56.303Z,17.67
2024-03-09T02:43:26.525Z,18.65
2024-03-09T02:45:53.841Z,19.15
2024-03-09T02:48:22.116Z,18.02
2024-03-09T02:50:49.563Z,17.02
2024-03-09T02:53:19.782Z,16.27
2024-03-09T02:55:47.256Z,18.65
2024-03-09T02:58:17.786Z,17.27
2024-03-09T03:00:45.120Z,18.65
2024-03-09T03:03:32.923Z,17.63
2024-03-09T03:06:03.594Z,16.42
2024-03-09T03:08:30.868Z,17.08
2024-03-09T03:10:58.337Z,19.85
2024-03-09T03:13:25.595Z,18.73
2024-03-09T03:15:53.631Z,18.35
2024-03-09T03:18:21.094Z,18.15
2024-03-09T03:20:50.395Z,19.20
2024-03-09T03:23:18.298Z,19.90
2024-03-09T03:25:50.400Z,17.60
2024-03-09T03:28:19.883Z,20.08
2024-03-09T03:30:47.123Z,18.58
2024-03-09T03:33:18.008Z,18.55
2024-03-09T03:35:50.418Z,19.60
2024-03-09T03:38:17.753Z,18.42
2024-03-09T03:43:14.214Z,19.58
2024-03-09T03:45:42.740Z,18.83
2024-03-09T03:48:16.830Z,17.45
2024-03-09T03:50:44.390Z,17.63
2024-03-09T03:53:11.841Z,18.83
2024-03-09T03:55:39.168Z,17.02
2024-03-09T03:58:08.083Z,19.38
2024-03-09T04:00:35.484Z,19.88
2024-03-09T04:03:07.004Z,20.23
2024-03-09T04:05:34.745Z,20.50
2024-03-09T04:08:02.033Z,20.48
2024-03-09T04:10:32.673Z,18.65
2024-03-09T04:13:04.412Z,19.58
2024-03-09T04:15:32.764Z,20.83
2024-03-09T04:18:04.152Z,18.98
2024-03-09T04:20:38.908Z,18.73
2024-03-09T04:23:10.601Z,19.73
2024-03-09T04:25:39.756Z,19.42
2024-03-09T04:28:08.035Z,19.10
2024-03-09T04:30:35.635Z,19.47
2024-03-09T04:33:07.011Z,18.73
2024-03-09T04:35:37.632Z,20.77
2024-03-09T04:38:07.809Z,19.70
2024-03-09T04:40:39.265Z,19.60
2024-03-09T04:43:11.364Z,19.33
2024-03-09T04:45:41.093Z,18.08
2024-03-09T04:48:11.691Z,19.67
2024-03-09T04:50:50.050Z,20.33
2024-03-09T04:53:19.123Z,19.50
2024-03-09T04:55:50.194Z,20.77
2024-03-09T04:58:19.887Z,21.23
2024-03-09T05:00:47.487Z,19.73
2024-03-09T05:03:19.036Z,20.30
2024-03-09T05:05:46.365Z,19.17
2024-03-09T05:08:14.658Z,19.60
2024-03-09T05:10:43.785Z,19.20
2024-03-09T05:13:10.992Z,18.63
2024-03-09T05:15:38.884Z,19.75
2024-03-09T05:18:09.933Z,19.73
2024-03-09T05:20:37.754Z,18.80
2024-03-09T05:23:10.720Z,18.50
2024-03-09T05:25:41.670Z,20.13
2024-03-09T05:28:14.192Z,17.80
2024-03-09T05:30:45.434Z,22.20
2024-03-09T05:33:16.813Z,21.85
2024-03-09T05:35:46.459Z,20.40
2024-03-09T05:38:14.034Z,22.85
2024-03-09T05:40:41.647Z,20.40
2024-03-09T05:43:11.643Z,20.73
2024-03-09T05:45:43.101Z,18.42
2024-03-09T05:48:12.284Z,21.08
2024-03-09T05:50:43.657Z,19.77
2024-03-09T05:53:12.531Z,18.80
2024-03-09T05:55:40.600Z,18.30
2024-03-09T05:58:08.808Z,18.73
2024-03-09T06:00:37.947Z,23.85
2024-03-09T06:03:07.967Z,18.70
2024-03-09T06:05:35.380Z,19.60
2024-03-09T06:08:06.997Z,19.15
2024-03-09T06:10:38.475Z,22.02
2024-03-09T06:13:13.542Z,17.98
2024-03-09T06:15:42.520Z,18.80
2024-03-09T06:18:12.038Z,20.38
2024-03-09T06:20:42.347Z,19.85
2024-03-09T06:23:10.006Z,18.83
2024-03-09T06:25:37.313Z,19.17
2024-03-09T06:28:09.339Z,20.98
2024-03-09T06:30:40.963Z,18.70
2024-03-09T06:35:37.551Z,20.70
2024-03-09T06:38:07.749Z,18.25
2024-03-09T06:40:43.024Z,19.27
2024-03-09T06:43:14.280Z,18.58
2024-03-09T06:45:43.128Z,19.92
2024-03-09T06:48:11.000Z,18.20
2024-03-09T06:50:42.993Z,19.48
2024-03-09T06:53:11.687Z,18.80
2024-03-09T06:55:41.664Z,20.17
2024-03-09T06:58:12.904Z,18.02
2024-03-09T07:00:39.925Z,19.42
2024-03-09T07:03:07.241Z,18.92
2024-03-09T07:05:38.716Z,18.33
2024-03-09T07:08:08.064Z,18.48
2024-03-09T07:10:36.358Z,19.20
2024-03-09T07:13:03.035Z,17.83
2024-03-09T07:15:32.395Z,17.80
2024-03-09T07:20:29.711Z,18.70
2024-03-09T07:22:57.142Z,20.75
2024-03-09T07:25:26.295Z,18.77
2024-03-09T07:27:58.094Z,18.80
2024-03-09T07:30:25.699Z,19.05
2024-03-09T07:32:55.285Z,18.75
2024-03-09T07:35:26.907Z,16.60
2024-03-09T07:37:55.017Z,18.90
2024-03-09T07:40:23.106Z,16.90
2024-03-09T07:42:51.493Z,18.15
2024-03-09T07:45:18.159Z,18.97
2024-03-09T07:47:46.406Z,17.83
2024-03-09T07:50:17.434Z,18.27
2024-03-09T07:52:54.543Z,16.33
2024-03-09T07:55:22.941Z,18.10
2024-03-09T07:57:49.802Z,17.67
2024-03-09T08:00:35.207Z,16.88
2024-03-09T08:03:02.755Z,19.88
2024-03-09T08:05:32.756Z,19.13
2024-03-09T08:08:04.337Z,20.08
2024-03-09T08:10:33.195Z,21.30
2024-03-09T08:13:00.148Z,17.60
2024-03-09T08:15:30.665Z,18.30
2024-03-09T08:17:57.514Z,19.67
2024-03-09T08:20:24.258Z,18.02
2024-03-09T08:22:50.960Z,20.15
2024-03-09T08:25:18.700Z,20.00
2024-03-09T08:27:46.661Z,17.90
2024-03-09T08:30:17.185Z,19.58
2024-03-09T08:32:48.738Z,19.15
2024-03-09T08:35:20.381Z,20.42
2024-03-09T08:37:48.798Z,18.02
2024-03-09T08:40:20.388Z,20.90
2024-03-09T08:42:54.739Z,17.77
2024-03-09T08:45:22.551Z,17.50
2024-03-09T08:47:53.226Z,17.50
2024-03-09T08:50:23.428Z,20.63
2024-03-09T08:52:53.927Z,18.20
2024-03-09T08:55:20.733Z,17.30
2024-03-09T08:57:49.806Z,18.42
2024-03-09T09:00:20.414Z,19.95
2024-03-09T09:02:50.386Z,18.33
2024-03-09T09:05:19.529Z,16.67
2024-03-09T09:07:47.869Z,17.85
2024-03-09T09:10:18.739Z,18.73
2024-03-09T09:12:46.651Z,17.67
2024-03-09T09:15:13.891Z,20.10
2024-03-09T09:17:43.245Z,19.25
2024-03-09T09:20:15.909Z,19.10
2024-03-09T09:22:48.096Z,17.75
2024-03-09T09:25:15.301Z,18.00
2024-03-09T09:27:44.198Z,16.92
2024-03-09T09:30:10.957Z,17.63
2024-03-09T09:32:39.157Z,18.83
2024-03-09T09:35:05.958Z,18.95
2024-03-09T09:37:33.882Z,19.27
2024-03-09T09:40:01.523Z,19.20
2024-03-09T09:42:30.953Z,18.38
2024-03-09T09:44:58.127Z,22.40
2024-03-09T09:47:28.905Z,19.38
2024-03-09T09:49:56.828Z,19.60
2024-03-09T09:52:26.403Z,18.25
2024-03-09T09:54:56.951Z,17.67
2024-03-09T09:57:25.732Z,19.17
2024-03-09T09:59:53.326Z,19.83
2024-03-09T10:02:23.269Z,15.55
2024-03-09T10:04:51.381Z,18.58
2024-03-09T10:07:17.866Z,19.38
2024-03-09T10:09:47.636Z,18.20
2024-03-09T10:12:21.122Z,17.45
2024-03-09T10:14:47.760Z,17.67
2024-03-09T10:17:15.552Z,18.67
2024-03-09T10:19:44.115Z,17.73
2024-03-09T10:22:10.653Z,17.63
2024-03-09T10:24:51.709Z,21.52
2024-03-09T10:27:27.137Z,20.35
2024-03-09T10:30:16.721Z,18.08
2024-03-09T10:32:43.686Z,23.13
2024-03-09T10:35:11.332Z,17.38
2024-03-09T10:37:41.987Z,15.85
2024-03-09T10:40:14.063Z,17.00
2024-03-09T10:42:46.967Z,20.60
2024-03-09T10:45:18.323Z,19.10
2024-03-09T10:47:55.985Z,17.65
2024-03-09T10:50:27.737Z,20.50
2024-03-09T10:53:10.379Z,17.63
2024-03-09T10:55:55.549Z,19.40
2024-03-09T10:58:26.836Z,18.52
2024-03-09T11:00:54.155Z,17.35
2024-03-09T11:03:24.287Z,18.23
2024-03-09T11:05:54.551Z,17.45
2024-03-09T11:08:22.305Z,17.05
2024-03-09T11:10:49.284Z,16.50
2024-03-09T11:13:19.853Z,16.30
2024-03-09T11:15:56.158Z,18.50
2024-03-09T11:18:24.082Z,17.70
2024-03-09T11:21:00.468Z,15.73
2024-03-09T11:23:32.115Z,20.40
2024-03-09T11:25:59.892Z,16.08
2024-03-09T11:28:30.600Z,16.17
2024-03-09T11:31:12.226Z,16.38
2024-03-09T11:33:50.736Z,16.13
2024-03-09T11:36:51.195Z,15.35
2024-03-09T11:39:32.494Z,15.07
2024-03-09T11:42:09.800Z,16.70
2024-03-09T11:44:40.845Z,15.57
2024-03-09T11:47:07.777Z,15.55
2024-03-09T11:49:35.704Z,16.05
2024-03-09T11:52:04.821Z,16.17
2024-03-09T11:54:32.199Z,15.85
2024-03-09T11:56:59.005Z,14.98
2024-03-09T11:59:26.463Z,16.00
2024-03-09T12:02:04.466Z,15.95
2024-03-09T12:04:33.445Z,15.73
2024-03-09T12:07:01.187Z,14.27
2024-03-09T12:09:29.231Z,14.77
2024-03-09T12:11:56.076Z,16.60
2024-03-09T12:14:22.594Z,17.98
2024-03-09T12:16:53.048Z,15.10
2024-03-09T12:19:19.832Z,14.50
2024-03-09T12:21:46.550Z,21.70
2024-03-09T12:24:14.124Z,15.52
2024-03-09T12:26:41.495Z,17.10
2024-03-09T12:29:09.941Z,16.08
2024-03-09T12:31:40.106Z,15.52
2024-03-09T12:34:07.072Z,15.57
2024-03-09T12:36:34.741Z,15.25
2024-03-09T12:39:17.979Z,16.92
2024-03-09T12:41:53.520Z,13.75
2024-03-09T12:44:22.487Z,14.98
2024-03-09T12:46:50.206Z,17.58
2024-03-09T12:49:16.893Z,15.82
2024-03-09T12:51:46.981Z,15.73
2024-03-09T12:54:14.388Z,18.27
2024-03-09T12:56:42.784Z,15.95
2024-03-09T12:59:17.771Z,14.88
2024-03-09T13:01:45.976Z,14.60
2024-03-09T13:04:12.997Z,16.83
2024-03-09T13:06:43.800Z,15.73
2024-03-09T13:09:17.237Z,14.20
2024-03-09T13:11:44.914Z,15.52
2024-03-09T13:14:11.921Z,14.10
2024-03-09T13:16:42.098Z,13.30
2024-03-09T13:19:11.545Z,13.38
2024-03-09T13:21:38.900Z,13.55
2024-03-09T13:24:10.169Z,13.30
2024-03-09T13:26:38.335Z,13.32
2024-03-09T13:29:04.996Z,13.68
2024-03-09T13:31:34.239Z,12.10
2024-03-09T13:34:07.000Z,15.50
2024-03-09T13:36:33.683Z,13.48
2024-03-09T13:39:12.737Z,13.13
2024-03-09T13:41:42.189Z,13.63
2024-03-09T13:44:10.093Z,13.43
2024-03-09T13:46:36.748Z,11.55
2024-03-09T13:49:12.215Z,11.30
2024-03-09T13:51:39.854Z,12.90
2024-03-09T13:54:08.886Z,12.70
2024-03-09T13:56:35.636Z,14.25
2024-03-09T13:59:02.484Z,12.35
2024-03-09T14:01:29.804Z,11.70
2024-03-09T14:03:58.897Z,12.35
2024-03-09T14:08:53.024Z,10.20
2024-03-09T14:11:20.933Z,12.23
2024-03-09T14:13:49.258Z,11.82
2024-03-09T14:16:16.296Z,11.80
2024-03-09T14:18:47.907Z,9.48
2024-03-09T14:21:18.538Z,12.73
2024-03-09T14:23:49.502Z,10.30
2024-03-09T14:26:18.655Z,9.05
2024-03-09T14:31:16.516Z,9.88
2024-03-09T14:33:45.430Z,13.05
2024-03-09T14:36:15.249Z,12.35
2024-03-09T14:38:41.819Z,11.63
2024-03-09T14:41:11.899Z,9.57
2024-03-09T14:43:42.529Z,9.70
2024-03-09T14:46:11.655Z,11.50
2024-03-09T14:48:39.120Z,9.95
2024-03-09T14:51:10.642Z,9.23
2024-03-09T14:53:41.104Z,12.52
2024-03-09T14:56:08.548Z,10.55
2024-03-09T14:58:42.377Z,9.63
2024-03-09T15:01:13.942Z,9.35
2024-03-09T15:03:41.268Z,10.48
2024-03-09T15:06:14.791Z,9.10
2024-03-09T15:08:44.354Z,7.75
2024-03-09T15:11:16.340Z,9.85
2024-03-09T15:13:54.727Z,10.77
2024-03-09T15:16:23.783Z,10.57
2024-03-09T15:18:56.274Z,9.30
2024-03-09T15:21:25.970Z,11.05
2024-03-09T15:23:58.696Z,11.75
2024-03-09T15:26:28.807Z,9.80
2024-03-09T15:28:57.970Z,11.45
2024-03-09T15:31:25.076Z,8.60
2024-03-09T15:33:54.288Z,7.75
2024-03-09T15:36:21.276Z,9.55
2024-03-09T15:38:48.317Z,9.35
2024-03-09T15:41:16.009Z,10.27
2024-03-09T15:43:43.777Z,10.48
2024-03-09T15:46:13.242Z,8.43
2024-03-09T15:48:39.941Z,8.75
2024-03-09T15:51:06.654Z,9.88
2024-03-09T15:53:38.776Z,10.60
2024-03-09T15:56:07.762Z,8.70
2024-03-09T15:58:44.288Z,8.70
2024-03-09T16:01:11.282Z,10.80
2024-03-09T16:03:39.051Z,9.88
2024-03-09T16:06:05.766Z,11.45
2024-03-09T16:08:34.338Z,15.50
2024-03-09T16:11:03.507Z,14.18
2024-03-09T16:13:31.801Z,10.38
2024-03-09T16:16:07.707Z,11.32
2024-03-09T16:18:34.620Z,11.35
2024-03-09T16:21:07.489Z,11.65
2024-03-09T16:23:35.118Z,11.63
2024-03-09T16:26:01.725Z,13.93
2024-03-09T16:28:32.698Z,13.35
2024-03-09T16:31:00.981Z,10.68
2024-03-09T16:33:30.197Z,13.47
2024-03-09T16:35:58.800Z,11.95
2024-03-09T16:38:25.436Z,13.00
2024-03-09T16:40:57.424Z,14.27
2024-03-09T16:43:35.097Z,12.52
2024-03-09T16:46:08.843Z,14.75
2024-03-09T16:48:38.920Z,11.55
2024-03-09T16:51:09.625Z,11.70
2024-03-09T16:53:39.741Z,12.57
2024-03-09T16:56:07.216Z,13.50
2024-03-09T16:58:33.804Z,13.85
2024-03-09T17:01:05.223Z,13.27
2024-03-09T17:03:35.441Z,14.95
2024-03-09T17:06:03.972Z,14.88
2024-03-09T17:08:31.145Z,14.13
2024-03-09T17:10:58.714Z,13.40
2024-03-09T17:13:25.464Z,11.95
2024-03-09T17:15:52.163Z,11.48
2024-03-09T17:18:22.357Z,13.90
2024-03-09T17:20:53.792Z,12.00
2024-03-09T17:23:21.490Z,13.63
2024-03-09T17:25:49.122Z,12.48
2024-03-09T17:28:20.930Z,12.77
2024-03-09T17:30:49.335Z,13.63
2024-03-09T17:33:16.493Z,11.45
2024-03-09T17:35:43.306Z,12.70
2024-03-09T17:38:09.915Z,14.93
2024-03-09T17:40:37.426Z,13.10
2024-03-09T17:46:52.229Z,12.48
2024-03-09T17:50:18.226Z,15.15
2024-03-09T18:15:11.279Z,12.75
2024-03-09T18:18:29.908Z,14.20
2024-03-09T18:23:44.014Z,14.60
2024-03-09T18:29:13.820Z,13.00
2024-03-09T18:31:42.280Z,12.65
2024-03-09T18:34:09.298Z,14.07
2024-03-09T18:36:35.868Z,12.35
2024-03-09T18:39:02.491Z,15.80
2024-03-09T19:38:49.482Z,14.98
2024-03-09T20:39:08.069Z,13.90
2024-03-09T20:48:31.634Z,12.23
2024-03-09T20:51:03.862Z,14.07
2024-03-09T21:00:54.930Z,13.40
2024-03-09T21:03:22.106Z,13.93
2024-03-09T21:05:56.348Z,12.38
2024-03-09T21:08:23.637Z,11.70
2024-03-09T21:10:53.435Z,11.75
2024-03-09T21:13:20.372Z,14.57
2024-03-09T21:15:46.930Z,13.80
2024-03-09T21:18:14.236Z,13.77
2024-03-09T21:20:40.842Z,12.63
2024-03-09T21:23:11.412Z,14.15
2024-03-09T21:25:38.930Z,10.57
2024-03-09T21:28:06.755Z,12.20
2024-03-09T21:30:33.293Z,11.45
2024-03-09T21:32:59.941Z,12.55
2024-03-09T21:35:27.052Z,12.48
2024-03-09T21:37:56.945Z,11.32
2024-03-09T21:40:26.747Z,11.18
2024-03-09T21:42:53.851Z,13.13
2024-03-09T21:45:20.922Z,12.82
2024-03-09T21:47:49.437Z,10.45
2024-03-09T21:50:22.706Z,12.65
2024-03-09T21:52:51.957Z,10.85
2024-03-09T21:55:19.846Z,9.75
2024-03-09T21:57:46.739Z,11.05
2024-03-09T22:00:24.459Z,11.60
2024-03-09T22:02:57.567Z,9.65
2024-03-09T22:05:28.824Z,10.60
2024-03-09T22:07:58.504Z,10.00
2024-03-09T22:10:25.859Z,10.60
2024-03-09T22:12:55.962Z,10.02
2024-03-09T22:15:24.406Z,10.95
2024-03-09T22:17:53.627Z,8.63
2024-03-09T22:20:20.991Z,9.63
2024-03-09T22:22:48.716Z,10.30
2024-03-09T22:25:17.192Z,11.10
2024-03-09T22:27:44.522Z,9.27
2024-03-09T22:30:13.267Z,10.65
2024-03-09T22:32:42.924Z,9.75
2024-03-09T22:35:15.057Z,8.75
2024-03-09T22:37:43.967Z,8.93
2024-03-09T22:40:15.416Z,8.63
2024-03-09T22:42:42.611Z,9.95
2024-03-09T22:45:12.638Z,9.27
2024-03-09T22:47:45.010Z,8.00
2024-03-09T22:50:16.501Z,8.80
2024-03-09T22:52:46.128Z,8.85
2024-03-09T22:55:19.425Z,9.40
2024-03-09T22:57:46.732Z,9.07
2024-03-09T23:00:24.725Z,10.27
2024-03-09T23:02:52.080Z,7.75
2024-03-09T23:05:24.021Z,9.57
2024-03-09T23:07:51.345Z,10.80
2024-03-09T23:10:21.053Z,10.35
2024-03-09T23:12:51.165Z,8.82
2024-03-09T23:15:23.521Z,9.35
2024-03-09T23:17:53.621Z,8.90
2024-03-09T23:20:24.709Z,8.27
2024-03-09T23:22:52.563Z,8.55
2024-03-09T23:25:20.161Z,10.98
2024-03-09T23:27:48.120Z,8.45
2024-03-09T23:30:19.106Z,9.15
2024-03-09T23:32:50.193Z,8.07
2024-03-09T23:35:18.916Z,9.02
2024-03-09T23:37:46.182Z,9.07
2024-03-09T23:40:14.111Z,8.38
2024-03-09T23:42:41.782Z,9.60
2024-03-09T23:45:15.596Z,9.00
2024-03-09T23:47:45.995Z,8.50
2024-03-09T23:50:13.956Z,10.65
2024-03-09T23:52:47.852Z,7.97
2024-03-09T23:55:14.756Z,7.05
2024-03-09T23:57:41.598Z,8.10
